Time;durP1;ratioP1;P1;durP2;ratioP2;P2;SDS_P1;SDS_P2;PMS_P1;PMS_P2;Temp;Humidity;BMP_temperature;BMP_pressure;BME280_temperature;BME280_humidity;BME280_pressure;Samples;Min_cycle;Max_cycle;Signal;HPM_P1;HPM_P2
2021/08/02 00:00:06;;;;;;;7.15;5.13;;;;;;;;;;6255391;28;20050;-81
2021/08/02 00:03:19;;;;;;;7.40;4.97;;;;;;;;;;6256860;28;20080;-82
2021/08/02 00:06:24;;;;;;;7.88;5.47;;;;;;;;;;6221366;28;20595;-82
2021/08/02 00:09:35;;;;;;;6.28;4.68;;;;;;;;;;6239878;28;20103;-81
2021/08/02 00:12:41;;;;;;;8.00;5.55;;;;;;;;;;6238381;28;20065;-82
2021/08/02 00:15:47;;;;;;;7.10;5.18;;;;;;;;;;6236604;28;20071;-82
2021/08/02 00:18:48;;;;;;;7.50;5.63;;;;;;;;;;6221011;28;20041;-82
2021/08/02 00:21:51;;;;;;;7.13;5.30;;;;;;;;;;6233862;28;20050;-82
2021/08/02 00:24:53;;;;;;;6.18;5.25;;;;;;;;;;6236508;28;20080;-82
2021/08/02 00:27:54;;;;;;;7.90;5.47;;;;;;;;;;6230058;28;20042;-81
2021/08/02 00:30:56;;;;;;;5.78;5.00;;;;;;;;;;6196513;28;20114;-82
2021/08/02 00:34:01;;;;;;;7.00;5.28;;;;;;;;;;6205901;28;20053;-82
2021/08/02 00:37:05;;;;;;;8.85;5.60;;;;;;;;;;6239253;28;20281;-82
2021/08/02 00:40:15;;;;;;;7.35;5.05;;;;;;;;;;6207015;28;20066;-82
2021/08/02 00:43:40;;;;;;;7.13;5.03;;;;;;;;;;6221063;28;20041;-82
2021/08/02 00:46:50;;;;;;;7.18;5.15;;;;;;;;;;6215948;28;20448;-81
2021/08/02 00:50:02;;;;;;;6.70;5.15;;;;;;;;;;6228833;28;20156;-82
2021/08/02 00:53:08;;;;;;;8.18;6.32;;;;;;;;;;6230877;28;20046;-82
2021/08/02 00:56:12;;;;;;;7.72;5.93;;;;;;;;;;6231631;28;20046;-82
2021/08/02 00:59:14;;;;;;;8.98;6.18;;;;;;;;;;6233283;28;20084;-82
2021/08/02 01:02:16;;;;;;;10.23;6.28;;;;;;;;;;6235424;28;20053;-81
2021/08/02 01:05:19;;;;;;;9.63;6.53;;;;;;;;;;6223590;28;20526;-82
2021/08/02 01:08:30;;;;;;;9.30;6.22;;;;;;;;;;6234024;28;20045;-82
2021/08/02 01:11:34;;;;;;;9.85;7.03;;;;;;;;;;6218873;28;20052;-81
2021/08/02 01:14:38;;;;;;;10.45;6.82;;;;;;;;;;6245545;28;20046;-81
2021/08/02 01:17:40;;;;;;;10.50;7.32;;;;;;;;;;6234018;28;20057;-81
2021/08/02 01:20:47;;;;;;;10.07;6.97;;;;;;;;;;6233278;28;20050;-82
2021/08/02 01:23:51;;;;;;;12.43;8.27;;;;;;;;;;6237114;28;20109;-82
2021/08/02 01:26:57;;;;;;;13.38;8.55;;;;;;;;;;6217826;28;20080;-82
2021/08/02 01:30:19;;;;;;;12.13;8.23;;;;;;;;;;6234713;28;20050;-81
2021/08/02 01:33:30;;;;;;;12.43;7.80;;;;;;;;;;6248680;28;20050;-81
2021/08/02 01:36:40;;;;;;;13.50;7.88;;;;;;;;;;6243082;28;20464;-82
2021/08/02 01:39:48;;;;;;;10.90;7.90;;;;;;;;;;6225486;28;20051;-82
2021/08/02 01:42:50;;;;;;;14.98;8.18;;;;;;;;;;6207797;28;20041;-82
2021/08/02 01:46:23;;;;;;;10.43;7.43;;;;;;;;;;6216235;28;20073;-82
2021/08/02 01:49:39;;;;;;;10.95;7.32;;;;;;;;;;6227856;28;20050;-82
2021/08/02 01:53:07;;;;;;;10.48;7.90;;;;;;;;;;6250017;28;20045;-81
2021/08/02 01:56:18;;;;;;;11.77;7.95;;;;;;;;;;6233525;28;20120;-81
2021/08/02 01:59:29;;;;;;;13.52;7.93;;;;;;;;;;6227729;28;20133;-81
2021/08/02 02:02:33;;;;;;;12.23;8.18;;;;;;;;;;6234223;28;20041;-82
2021/08/02 02:05:43;;;;;;;14.30;8.45;;;;;;;;;;6245399;28;20039;-81
2021/08/02 02:08:56;;;;;;;12.93;8.48;;;;;;;;;;6258303;28;20544;-81
2021/08/02 02:12:07;;;;;;;12.35;7.82;;;;;;;;;;6240545;28;20053;-82
2021/08/02 02:15:12;;;;;;;11.77;8.15;;;;;;;;;;6239714;28;20048;-81
2021/08/02 02:18:17;;;;;;;12.35;8.73;;;;;;;;;;6258449;28;20046;-81
2021/08/02 02:21:23;;;;;;;11.55;8.30;;;;;;;;;;6240773;28;20099;-80
2021/08/02 02:24:29;;;;;;;13.45;8.27;;;;;;;;;;6211623;28;20033;-81
2021/08/02 02:27:34;;;;;;;12.20;8.35;;;;;;;;;;6232356;28;20061;-80
2021/08/02 02:30:46;;;;;;;12.27;8.60;;;;;;;;;;6257116;28;20170;-80
2021/08/02 02:33:49;;;;;;;14.40;9.45;;;;;;;;;;6231855;28;20042;-81
2021/08/02 02:36:54;;;;;;;12.40;8.50;;;;;;;;;;6230105;28;20049;-81
2021/08/02 02:39:57;;;;;;;13.88;8.45;;;;;;;;;;6229640;28;20054;-81
2021/08/02 02:43:00;;;;;;;12.48;8.90;;;;;;;;;;6227491;28;20045;-80
2021/08/02 02:46:02;;;;;;;13.55;8.82;;;;;;;;;;6237290;28;20049;-80
2021/08/02 02:49:04;;;;;;;15.63;9.18;;;;;;;;;;6236993;28;20053;-80
2021/08/02 02:52:08;;;;;;;13.85;9.20;;;;;;;;;;6237067;28;20068;-80
2021/08/02 02:55:15;;;;;;;14.68;9.25;;;;;;;;;;6253582;28;20049;-80
2021/08/02 02:58:21;;;;;;;13.25;8.77;;;;;;;;;;6238522;28;20581;-80
2021/08/02 03:01:29;;;;;;;14.18;8.77;;;;;;;;;;6214293;28;20214;-81
2021/08/02 03:04:35;;;;;;;13.40;8.73;;;;;;;;;;6235305;28;20045;-80
2021/08/02 03:07:39;;;;;;;11.85;8.18;;;;;;;;;;6255420;28;20045;-80
2021/08/02 03:10:43;;;;;;;10.60;7.32;;;;;;;;;;6238397;28;20388;-80
2021/08/02 03:13:45;;;;;;;10.40;7.20;;;;;;;;;;6255183;28;20057;-79
2021/08/02 03:16:46;;;;;;;12.00;7.03;;;;;;;;;;6257169;28;20061;-79
2021/08/02 03:19:48;;;;;;;10.32;7.00;;;;;;;;;;6256484;28;20109;-79
2021/08/02 03:23:10;;;;;;;11.50;7.60;;;;;;;;;;6236665;28;20076;-79
2021/08/02 03:26:16;;;;;;;11.10;7.45;;;;;;;;;;6238402;28;20053;-80
2021/08/02 03:29:28;;;;;;;10.65;7.10;;;;;;;;;;6238653;28;20037;-79
2021/08/02 03:32:32;;;;;;;10.48;7.15;;;;;;;;;;6255821;28;20117;-78
2021/08/02 03:35:35;;;;;;;11.57;7.47;;;;;;;;;;6233977;28;20515;-79
2021/08/02 03:38:39;;;;;;;13.25;7.60;;;;;;;;;;6205939;28;20213;-78
2021/08/02 03:41:42;;;;;;;14.05;7.75;;;;;;;;;;6245821;28;20077;-78
2021/08/02 03:44:45;;;;;;;14.82;8.07;;;;;;;;;;6228870;28;20128;-78
2021/08/02 03:47:48;;;;;;;14.20;7.90;;;;;;;;;;6227280;28;20042;-79
2021/08/02 03:50:50;;;;;;;13.27;8.30;;;;;;;;;;6250771;28;20049;-78
2021/08/02 03:53:51;;;;;;;12.85;8.02;;;;;;;;;;6213795;28;20452;-79
2021/08/02 03:56:54;;;;;;;13.50;9.02;;;;;;;;;;6217100;28;20050;-79
2021/08/02 03:59:56;;;;;;;15.20;9.70;;;;;;;;;;6234804;28;20050;-79
2021/08/02 04:02:57;;;;;;;17.50;9.77;;;;;;;;;;6239135;28;20052;-79
2021/08/02 04:06:00;;;;;;;17.15;9.93;;;;;;;;;;6254676;28;20045;-78
2021/08/02 04:09:05;;;;;;;17.65;10.75;;;;;;;;;;6236510;28;20053;-78
2021/08/02 04:12:09;;;;;;;16.02;9.63;;;;;;;;;;6223079;28;20091;-79
2021/08/02 04:15:11;;;;;;;15.02;9.02;;;;;;;;;;6230994;28;20045;-78
2021/08/02 04:18:13;;;;;;;16.27;9.70;;;;;;;;;;6253341;28;20042;-80
2021/08/02 04:21:15;;;;;;;15.30;9.43;;;;;;;;;;6242981;28;20094;-79
2021/08/02 04:24:17;;;;;;;15.85;9.25;;;;;;;;;;6255666;28;20045;-78
2021/08/02 04:27:18;;;;;;;16.67;8.25;;;;;;;;;;6240073;28;20041;-78
2021/08/02 04:30:20;;;;;;;14.07;8.93;;;;;;;;;;6242691;28;20072;-78
2021/08/02 04:33:23;;;;;;;16.93;9.63;;;;;;;;;;6265658;28;20097;-78
2021/08/02 04:36:25;;;;;;;17.38;9.75;;;;;;;;;;6264406;28;20535;-78
2021/08/02 04:39:27;;;;;;;14.90;9.52;;;;;;;;;;6266331;28;20294;-78
2021/08/02 04:42:33;;;;;;;16.35;10.15;;;;;;;;;;6248822;28;20051;-78
2021/08/02 04:45:35;;;;;;;17.63;9.70;;;;;;;;;;6263192;28;20064;-78
2021/08/02 04:48:37;;;;;;;16.45;9.88;;;;;;;;;;6263137;28;20045;-78
2021/08/02 04:51:39;;;;;;;16.42;9.32;;;;;;;;;;6260373;28;20069;-78
2021/08/02 04:54:41;;;;;;;16.52;9.25;;;;;;;;;;6244858;28;20072;-78
2021/08/02 04:57:43;;;;;;;14.68;8.65;;;;;;;;;;6244613;28;20037;-78
2021/08/02 05:00:46;;;;;;;14.63;8.93;;;;;;;;;;6245264;28;20092;-78
2021/08/02 05:03:48;;;;;;;14.90;8.27;;;;;;;;;;6259096;28;20045;-78
2021/08/02 05:06:49;;;;;;;14.02;8.50;;;;;;;;;;6259884;28;20060;-78
2021/08/02 05:09:51;;;;;;;13.65;8.85;;;;;;;;;;6261584;28;20068;-78
2021/08/02 05:12:53;;;;;;;14.27;8.57;;;;;;;;;;6259243;28;20060;-78
2021/08/02 05:15:55;;;;;;;13.07;7.60;;;;;;;;;;6259989;28;20056;-78
2021/08/02 05:18:56;;;;;;;11.57;7.30;;;;;;;;;;6243114;28;20080;-78
2021/08/02 05:21:58;;;;;;;10.52;7.25;;;;;;;;;;6235305;28;20054;-79
2021/08/02 05:25:00;;;;;;;10.65;7.00;;;;;;;;;;6234474;28;20072;-79
2021/08/02 05:28:01;;;;;;;9.40;6.20;;;;;;;;;;6246680;28;20060;-79
2021/08/02 05:31:03;;;;;;;8.30;5.75;;;;;;;;;;6226942;28;20045;-79
2021/08/02 05:34:05;;;;;;;8.82;5.43;;;;;;;;;;6258185;28;20045;-79
2021/08/02 05:37:08;;;;;;;8.75;5.88;;;;;;;;;;6217632;28;20078;-81
2021/08/02 05:40:11;;;;;;;8.85;5.65;;;;;;;;;;6217870;28;20072;-81
2021/08/02 05:43:12;;;;;;;8.95;6.22;;;;;;;;;;6217820;28;20054;-81
2021/08/02 05:46:14;;;;;;;10.15;5.78;;;;;;;;;;6216614;28;20042;-82
2021/08/02 05:49:16;;;;;;;7.43;5.55;;;;;;;;;;6236088;28;20407;-82
2021/08/02 05:52:18;;;;;;;8.57;5.88;;;;;;;;;;6241185;28;20088;-80
2021/08/02 05:55:20;;;;;;;9.77;6.25;;;;;;;;;;6257511;28;20041;-83
2021/08/02 05:58:21;;;;;;;8.27;5.93;;;;;;;;;;6239023;28;20069;-82
2021/08/02 06:01:23;;;;;;;7.43;5.43;;;;;;;;;;6241060;28;20076;-83
2021/08/02 06:04:25;;;;;;;7.88;5.53;;;;;;;;;;6257045;28;20105;-83
2021/08/02 06:07:27;;;;;;;7.18;5.70;;;;;;;;;;6225077;28;20041;-82
2021/08/02 06:10:29;;;;;;;8.60;5.50;;;;;;;;;;6224999;28;20045;-82
2021/08/02 06:13:31;;;;;;;9.45;5.88;;;;;;;;;;6223881;28;20073;-81
2021/08/02 06:16:32;;;;;;;10.93;6.07;;;;;;;;;;6258947;28;20045;-81
2021/08/02 06:19:38;;;;;;;9.63;5.80;;;;;;;;;;6259342;28;20065;-80
2021/08/02 06:22:39;;;;;;;9.18;6.05;;;;;;;;;;6258714;28;20046;-80
2021/08/02 06:25:42;;;;;;;9.90;6.50;;;;;;;;;;6258514;28;20053;-80
2021/08/02 06:28:43;;;;;;;11.15;6.93;;;;;;;;;;6256378;28;20045;-80
2021/08/02 06:31:45;;;;;;;9.85;6.75;;;;;;;;;;6256183;28;20088;-80
2021/08/02 06:34:47;;;;;;;8.65;6.38;;;;;;;;;;6244114;28;20087;-80
2021/08/02 06:37:49;;;;;;;9.75;6.20;;;;;;;;;;6240033;28;20049;-81
2021/08/02 06:40:50;;;;;;;9.70;5.95;;;;;;;;;;6239452;28;20045;-80
2021/08/02 06:43:52;;;;;;;9.02;6.80;;;;;;;;;;6239418;28;20133;-81
2021/08/02 06:46:54;;;;;;;8.32;6.32;;;;;;;;;;6232894;28;20057;-80
2021/08/02 06:49:55;;;;;;;9.90;6.10;;;;;;;;;;6237878;28;20053;-81
2021/08/02 06:52:57;;;;;;;8.65;5.95;;;;;;;;;;6255640;28;20089;-80
2021/08/02 06:56:00;;;;;;;8.25;6.47;;;;;;;;;;6254302;28;20628;-81
2021/08/02 06:59:02;;;;;;;8.52;6.40;;;;;;;;;;6191504;28;20053;-81
2021/08/02 07:02:04;;;;;;;8.20;6.35;;;;;;;;;;6228920;28;20045;-81
2021/08/02 07:05:07;;;;;;;9.00;6.88;;;;;;;;;;6221569;28;20045;-81
2021/08/02 07:08:09;;;;;;;8.68;6.47;;;;;;;;;;6221588;28;20087;-80
2021/08/02 07:11:10;;;;;;;7.50;6.30;;;;;;;;;;6256033;28;20065;-80
2021/08/02 07:14:12;;;;;;;9.15;6.50;;;;;;;;;;6237854;28;20067;-81
2021/08/02 07:17:14;;;;;;;8.63;6.75;;;;;;;;;;6255660;28;20045;-81
2021/08/02 07:20:15;;;;;;;8.32;6.20;;;;;;;;;;6256665;28;20079;-80
2021/08/02 07:23:17;;;;;;;8.80;6.50;;;;;;;;;;6239209;28;20064;-80
2021/08/02 07:26:19;;;;;;;6.35;5.32;;;;;;;;;;6239019;28;20045;-81
2021/08/02 07:29:20;;;;;;;8.02;6.00;;;;;;;;;;6237283;28;20049;-80
2021/08/02 07:32:22;;;;;;;8.07;5.78;;;;;;;;;;6256578;28;20092;-81
2021/08/02 07:35:24;;;;;;;8.25;6.10;;;;;;;;;;6237886;28;20068;-82
2021/08/02 07:38:26;;;;;;;8.43;6.20;;;;;;;;;;6239197;28;20041;-80
2021/08/02 07:41:30;;;;;;;8.27;5.80;;;;;;;;;;6257293;28;20041;-80
2021/08/02 07:44:32;;;;;;;8.10;5.93;;;;;;;;;;6255678;28;20068;-80
2021/08/02 07:47:34;;;;;;;9.82;6.80;;;;;;;;;;6257014;28;20037;-80
2021/08/02 07:50:36;;;;;;;9.68;6.40;;;;;;;;;;6254902;28;20097;-80
2021/08/02 07:53:37;;;;;;;9.25;6.00;;;;;;;;;;6256696;28;20109;-80
2021/08/02 07:56:39;;;;;;;8.88;5.78;;;;;;;;;;6239247;28;20049;-80
2021/08/02 07:59:40;;;;;;;6.65;5.20;;;;;;;;;;6251950;28;20068;-79
2021/08/02 08:02:46;;;;;;;7.88;5.93;;;;;;;;;;6229633;28;20105;-82
2021/08/02 08:05:49;;;;;;;7.00;5.78;;;;;;;;;;6229950;28;20041;-80
2021/08/02 08:08:51;;;;;;;6.90;5.88;;;;;;;;;;6259994;28;20045;-80
2021/08/02 08:11:53;;;;;;;8.05;5.68;;;;;;;;;;6258661;28;20072;-80
2021/08/02 08:14:54;;;;;;;8.02;5.85;;;;;;;;;;6227815;28;20119;-79
2021/08/02 08:17:56;;;;;;;7.35;6.05;;;;;;;;;;6241839;28;20076;-78
2021/08/02 08:20:59;;;;;;;6.88;5.38;;;;;;;;;;6259905;28;20511;-79
2021/08/02 08:24:03;;;;;;;;;;;;;;;;;;6259974;28;20045;-80
2021/08/02 08:27:05;;;;;;;9.15;5.50;;;;;;;;;;6242030;28;19971;-80
2021/08/02 08:30:09;;;;;;;5.85;5.10;;;;;;;;;;6258779;28;20041;-81
2021/08/02 08:33:10;;;;;;;7.10;5.63;;;;;;;;;;6225397;28;20096;-81
2021/08/02 08:36:15;;;;;;;6.40;4.93;;;;;;;;;;6224159;28;20044;-79
2021/08/02 08:39:17;;;;;;;6.30;5.10;;;;;;;;;;6276043;28;20097;-80
2021/08/02 08:42:19;;;;;;;5.85;5.10;;;;;;;;;;6260664;28;20064;-79
2021/08/02 08:45:21;;;;;;;7.03;4.57;;;;;;;;;;6246255;28;20042;-79
2021/08/02 08:48:22;;;;;;;6.07;4.47;;;;;;;;;;6236701;28;20042;-78
2021/08/02 08:51:26;;;;;;;5.43;4.50;;;;;;;;;;6215540;28;20065;-80
2021/08/02 08:54:31;;;;;;;4.95;4.15;;;;;;;;;;6209801;28;20050;-80
2021/08/02 08:57:33;;;;;;;5.72;3.83;;;;;;;;;;6214923;28;20100;-79
2021/08/02 09:00:35;;;;;;;4.35;3.95;;;;;;;;;;6235013;28;20118;-80
2021/08/02 09:03:37;;;;;;;9.07;5.53;;;;;;;;;;6232153;28;20056;-80
2021/08/02 09:06:49;;;;;;;4.47;4.00;;;;;;;;;;6233036;28;20049;-79
2021/08/02 09:09:58;;;;;;;4.25;3.25;;;;;;;;;;6235035;28;20141;-80
2021/08/02 09:13:05;;;;;;;3.50;3.20;;;;;;;;;;6234706;28;20098;-79
2021/08/02 09:16:12;;;;;;;4.18;3.13;;;;;;;;;;6249820;28;20042;-79
2021/08/02 09:19:14;;;;;;;4.43;3.30;;;;;;;;;;6232627;28;20067;-81
2021/08/02 09:22:31;;;;;;;5.25;3.13;;;;;;;;;;6218001;28;20026;-81
2021/08/02 09:25:33;;;;;;;3.80;3.40;;;;;;;;;;6256922;28;20041;-79
2021/08/02 09:28:35;;;;;;;3.08;2.78;;;;;;;;;;6257058;28;20104;-79
2021/08/02 09:31:46;;;;;;;3.20;2.90;;;;;;;;;;6238810;28;20037;-80
2021/08/02 09:34:48;;;;;;;4.88;3.10;;;;;;;;;;6236611;28;20041;-79
2021/08/02 09:37:54;;;;;;;4.03;3.22;;;;;;;;;;6256537;28;20088;-79
2021/08/02 09:40:57;;;;;;;3.28;2.97;;;;;;;;;;6239669;28;20048;-80
2021/08/02 09:43:59;;;;;;;3.65;3.35;;;;;;;;;;6215675;28;20037;-80
2021/08/02 09:47:07;;;;;;;4.72;3.45;;;;;;;;;;6232657;28;20108;-81
2021/08/02 09:50:09;;;;;;;2.90;2.70;;;;;;;;;;6225266;28;20122;-81
2021/08/02 09:53:17;;;;;;;4.82;2.58;;;;;;;;;;6230503;28;20050;-79
2021/08/02 09:56:22;;;;;;;7.13;2.80;;;;;;;;;;6204507;28;20052;-81
2021/08/02 09:59:43;;;;;;;4.50;2.70;;;;;;;;;;6205971;28;20052;-80
2021/08/02 10:02:50;;;;;;;4.90;3.10;;;;;;;;;;6134456;28;1141133;-81
2021/08/02 10:05:55;;;;;;;3.70;3.30;;;;;;;;;;6186809;28;20489;-81
2021/08/02 10:09:07;;;;;;;6.47;3.60;;;;;;;;;;6167931;28;20496;-81
2021/08/02 10:12:09;;;;;;;5.85;3.40;;;;;;;;;;6176100;28;20156;-83
2021/08/02 10:15:30;;;;;;;4.15;3.20;;;;;;;;;;6138965;28;20126;-82
2021/08/02 10:18:40;;;;;;;4.53;3.35;;;;;;;;;;6139640;28;20058;-82
2021/08/02 10:21:48;;;;;;;4.90;3.00;;;;;;;;;;6166214;28;20042;-81
2021/08/02 10:24:54;;;;;;;6.57;4.30;;;;;;;;;;6225078;28;20056;-80
2021/08/02 10:28:11;;;;;;;4.32;3.92;;;;;;;;;;6224691;28;20056;-82
2021/08/02 10:31:13;;;;;;;5.57;3.80;;;;;;;;;;6255358;28;20045;-79
2021/08/02 10:34:31;;;;;;;6.38;3.92;;;;;;;;;;6253972;28;20041;-78
2021/08/02 10:37:37;;;;;;;4.50;3.25;;;;;;;;;;6256645;28;20048;-82
2021/08/02 10:40:47;;;;;;;3.60;3.10;;;;;;;;;;6237542;28;20057;-81
2021/08/02 10:43:48;;;;;;;4.13;2.50;;;;;;;;;;6238842;28;20498;-81
2021/08/02 10:46:59;;;;;;;2.80;2.00;;;;;;;;;;6257020;28;20092;-79
2021/08/02 10:50:01;;;;;;;3.85;2.30;;;;;;;;;;6252429;28;20049;-79
2021/08/02 10:53:13;;;;;;;2.13;1.85;;;;;;;;;;6258013;28;20045;-80
2021/08/02 10:56:26;;;;;;;2.05;1.85;;;;;;;;;;6238991;28;20055;-80
2021/08/02 10:59:35;;;;;;;;;;;;;;;;;;6250049;28;20049;-81
2021/08/02 11:02:37;;;;;;;2.92;1.48;;;;;;;;;;6246155;28;19943;-80
2021/08/02 11:05:39;;;;;;;1.90;1.80;;;;;;;;;;6231604;28;20056;-80
2021/08/02 11:08:54;;;;;;;2.25;1.75;;;;;;;;;;6231284;28;20057;-82
2021/08/02 11:12:16;;;;;;;1.73;1.63;;;;;;;;;;6243497;28;20065;-80
2021/08/02 11:15:17;;;;;;;2.63;2.33;;;;;;;;;;6229800;28;20046;-80
2021/08/02 11:18:25;;;;;;;2.72;2.15;;;;;;;;;;6228657;28;20046;-80
2021/08/02 11:21:27;;;;;;;3.22;2.60;;;;;;;;;;6243114;28;20120;-79
2021/08/02 11:24:31;;;;;;;2.47;2.22;;;;;;;;;;6226877;28;20050;-80
2021/08/02 11:27:33;;;;;;;3.33;2.20;;;;;;;;;;6242764;28;20066;-80
2021/08/02 11:30:37;;;;;;;4.28;2.38;;;;;;;;;;6201881;28;20118;-79
2021/08/02 11:33:41;;;;;;;3.47;2.58;;;;;;;;;;6236827;28;20041;-79
2021/08/02 11:36:43;;;;;;;3.72;2.30;;;;;;;;;;6250555;28;20049;-79
2021/08/02 11:39:56;;;;;;;2.50;2.13;;;;;;;;;;6252740;28;20041;-80
2021/08/02 11:43:02;;;;;;;3.65;2.35;;;;;;;;;;6236032;28;20057;-79
2021/08/02 11:46:04;;;;;;;3.08;2.60;;;;;;;;;;6250706;28;20049;-78
2021/08/02 11:49:08;;;;;;;2.80;2.10;;;;;;;;;;6236451;28;20076;-79
2021/08/02 11:52:15;;;;;;;2.22;2.03;;;;;;;;;;6254072;28;20100;-79
2021/08/02 11:55:17;;;;;;;2.70;2.00;;;;;;;;;;6235155;28;20117;-80
2021/08/02 11:58:18;;;;;;;2.45;2.22;;;;;;;;;;6224952;28;20045;-80
2021/08/02 12:01:20;;;;;;;4.15;2.58;;;;;;;;;;6212098;28;20057;-81
2021/08/02 12:04:23;;;;;;;2.50;2.20;;;;;;;;;;6226351;28;20609;-80
2021/08/02 12:07:32;;;;;;;2.97;2.40;;;;;;;;;;6229088;28;20105;-80
2021/08/02 12:10:34;;;;;;;2.83;2.20;;;;;;;;;;6230283;28;20046;-82
2021/08/02 12:13:44;;;;;;;3.78;2.45;;;;;;;;;;6213478;28;20042;-81
2021/08/02 12:16:46;;;;;;;2.50;2.30;;;;;;;;;;6230266;28;20030;-80
2021/08/02 12:20:05;;;;;;;2.30;2.10;;;;;;;;;;6158827;28;20057;-81
2021/08/02 12:23:08;;;;;;;2.65;2.45;;;;;;;;;;6155581;28;20066;-81
2021/08/02 12:26:19;;;;;;;2.58;2.35;;;;;;;;;;6220648;28;20046;-81
2021/08/02 12:29:28;;;;;;;3.08;2.78;;;;;;;;;;6246642;28;20045;-81
2021/08/02 12:32:40;;;;;;;4.97;2.80;;;;;;;;;;6229731;28;20469;-80
2021/08/02 12:35:43;;;;;;;2.97;2.75;;;;;;;;;;6242464;28;20049;-79
2021/08/02 12:38:50;;;;;;;3.47;2.90;;;;;;;;;;6219247;28;20052;-80
2021/08/02 12:41:53;;;;;;;2.85;2.40;;;;;;;;;;6217749;28;20041;-79
2021/08/02 12:44:59;;;;;;;3.55;2.47;;;;;;;;;;6209654;28;20042;-78
2021/08/02 12:48:20;;;;;;;3.30;2.78;;;;;;;;;;6211918;28;20049;-78
2021/08/02 12:51:26;;;;;;;2.75;2.50;;;;;;;;;;6210849;28;20529;-77
2021/08/02 12:54:27;;;;;;;2.30;2.10;;;;;;;;;;6238939;28;20041;-78
2021/08/02 12:57:30;;;;;;;2.42;2.22;;;;;;;;;;6222596;28;20136;-78
2021/08/02 13:00:32;;;;;;;4.00;2.20;;;;;;;;;;6240108;28;20073;-78
2021/08/02 13:03:35;;;;;;;2.05;1.95;;;;;;;;;;6221701;28;20148;-78
2021/08/02 13:06:37;;;;;;;2.97;2.53;;;;;;;;;;6221205;28;20045;-79
2021/08/02 13:09:39;;;;;;;2.70;2.10;;;;;;;;;;6236774;28;20172;-79
2021/08/02 13:12:46;;;;;;;2.67;2.00;;;;;;;;;;6210735;28;20042;-79
2021/08/02 13:15:48;;;;;;;2.00;1.90;;;;;;;;;;6219415;28;20041;-80
2021/08/02 13:18:53;;;;;;;4.13;2.10;;;;;;;;;;6191878;28;20046;-80
2021/08/02 13:21:55;;;;;;;2.15;1.85;;;;;;;;;;6183159;28;20054;-81
2021/08/02 13:28:17;;;;;;;3.45;1.95;;;;;;;;;;6215274;28;20062;-79
2021/08/02 13:31:18;;;;;;;1.90;1.80;;;;;;;;;;6215895;28;20052;-78
2021/08/02 13:34:21;;;;;;;3.40;2.00;;;;;;;;;;6207261;28;20881;-77
2021/08/02 13:37:22;;;;;;;2.70;1.50;;;;;;;;;;6214954;28;20195;-79
2021/08/02 13:40:24;;;;;;;3.75;1.60;;;;;;;;;;6212348;28;20053;-79
2021/08/02 13:43:39;;;;;;;1.60;1.50;;;;;;;;;;6218670;28;20050;-79
2021/08/02 13:46:41;;;;;;;2.60;1.65;;;;;;;;;;6243015;28;20118;-78
2021/08/02 13:49:43;;;;;;;1.95;1.85;;;;;;;;;;6243954;28;20049;-79
2021/08/02 13:52:44;;;;;;;3.22;1.80;;;;;;;;;;6222282;28;20044;-79
2021/08/02 13:55:46;;;;;;;2.65;1.85;;;;;;;;;;6235282;28;20049;-80
2021/08/02 13:58:48;;;;;;;1.75;1.65;;;;;;;;;;6226412;28;20570;-79
2021/08/02 14:01:49;;;;;;;1.75;1.48;;;;;;;;;;6220835;28;20038;-79
2021/08/02 14:04:51;;;;;;;1.70;1.50;;;;;;;;;;6241083;28;20056;-80
2021/08/02 14:07:53;;;;;;;2.63;1.90;;;;;;;;;;6244889;28;20135;-80
2021/08/02 14:11:00;;;;;;;1.95;1.60;;;;;;;;;;6227575;28;20065;-79
2021/08/02 14:14:02;;;;;;;3.80;1.92;;;;;;;;;;6241790;28;20057;-79
2021/08/02 14:17:09;;;;;;;2.80;1.80;;;;;;;;;;6226947;28;20125;-79
2021/08/02 14:20:11;;;;;;;3.05;1.75;;;;;;;;;;6213769;28;20053;-78
2021/08/02 14:23:13;;;;;;;3.40;2.38;;;;;;;;;;6193909;28;20129;-78
2021/08/02 14:26:35;;;;;;;2.83;2.53;;;;;;;;;;6208380;28;20054;-80
2021/08/02 14:29:40;;;;;;;3.85;2.38;;;;;;;;;;6191483;28;20038;-78
2021/08/02 14:32:42;;;;;;;3.45;2.50;;;;;;;;;;6213182;28;20042;-82
2021/08/02 14:35:45;;;;;;;3.10;2.80;;;;;;;;;;6231366;28;20182;-80
2021/08/02 14:38:59;;;;;;;3.10;2.80;;;;;;;;;;6237064;28;20072;-79
2021/08/02 14:42:03;;;;;;;5.28;2.95;;;;;;;;;;6244380;28;20072;-82
2021/08/02 14:45:06;;;;;;;4.38;3.10;;;;;;;;;;6240876;28;20053;-80
2021/08/02 14:48:10;;;;;;;7.10;3.47;;;;;;;;;;6231506;28;20045;-80
2021/08/02 14:51:12;;;;;;;3.63;3.00;;;;;;;;;;6255489;28;20065;-79
2021/08/02 14:54:16;;;;;;;3.40;3.10;;;;;;;;;;6220888;28;20112;-80
2021/08/02 14:57:18;;;;;;;4.72;3.40;;;;;;;;;;6237549;28;20049;-80
2021/08/02 15:00:20;;;;;;;3.70;3.40;;;;;;;;;;6253219;28;20458;-79
2021/08/02 15:03:22;;;;;;;3.70;3.40;;;;;;;;;;6230049;28;20045;-79
2021/08/02 15:06:28;;;;;;;;;;;;;;;;;;6234082;28;20046;-80
2021/08/02 15:09:31;;;;;;;3.75;3.30;;;;;;;;;;6233787;28;20512;-80
2021/08/02 15:12:32;;;;;;;4.35;3.75;;;;;;;;;;6229227;28;20092;-81
2021/08/02 15:15:55;;;;;;;3.90;3.25;;;;;;;;;;6184447;28;20072;-79
2021/08/02 15:19:04;;;;;;;3.78;3.30;;;;;;;;;;6212011;28;20065;-81
2021/08/02 15:22:19;;;;;;;4.55;3.90;;;;;;;;;;6232079;28;20073;-80
2021/08/02 15:25:21;;;;;;;4.70;3.67;;;;;;;;;;6231920;28;20061;-80
2021/08/02 15:28:24;;;;;;;3.85;3.38;;;;;;;;;;6231893;28;20084;-80
2021/08/02 15:31:28;;;;;;;3.83;3.40;;;;;;;;;;6233258;28;20352;-80
2021/08/02 15:34:30;;;;;;;3.65;3.33;;;;;;;;;;6245737;28;20049;-82
2021/08/02 15:37:35;;;;;;;5.22;3.50;;;;;;;;;;6214315;28;20049;-81
2021/08/02 15:40:39;;;;;;;4.13;3.65;;;;;;;;;;6228987;28;20152;-81
2021/08/02 15:43:46;;;;;;;3.97;3.30;;;;;;;;;;6245863;28;20116;-83
2021/08/02 15:46:56;;;;;;;5.10;3.42;;;;;;;;;;6184817;28;20045;-81
2021/08/02 15:50:19;;;;;;;4.20;3.25;;;;;;;;;;6147982;28;20089;-82
2021/08/02 15:53:37;;;;;;;4.40;3.88;;;;;;;;;;6218227;28;20061;-82
2021/08/02 15:56:42;;;;;;;3.90;3.53;;;;;;;;;;6208284;28;20113;-81
2021/08/02 15:59:54;;;;;;;4.68;3.50;;;;;;;;;;6230319;28;20042;-82
2021/08/02 16:03:14;;;;;;;5.38;3.83;;;;;;;;;;6232735;28;20077;-82
2021/08/02 16:06:20;;;;;;;3.97;3.38;;;;;;;;;;6198325;28;20042;-82
2021/08/02 16:09:28;;;;;;;6.60;3.78;;;;;;;;;;6220112;28;20043;-81
2021/08/02 16:12:41;;;;;;;4.00;3.60;;;;;;;;;;6238696;28;20500;-81
2021/08/02 16:15:45;;;;;;;4.75;3.80;;;;;;;;;;6204617;28;20042;-81
2021/08/02 16:18:47;;;;;;;5.32;3.58;;;;;;;;;;6221669;28;20046;-81
2021/08/02 16:21:49;;;;;;;5.28;3.65;;;;;;;;;;6229753;28;20069;-81
2021/08/02 16:24:50;;;;;;;5.80;4.30;;;;;;;;;;6229502;28;20046;-82
2021/08/02 16:27:56;;;;;;;5.57;3.75;;;;;;;;;;6213477;28;20069;-80
2021/08/02 16:30:57;;;;;;;5.18;3.72;;;;;;;;;;6237534;28;20054;-81
2021/08/02 16:33:59;;;;;;;4.43;3.70;;;;;;;;;;6237838;28;20098;-81
2021/08/02 16:37:00;;;;;;;6.05;4.05;;;;;;;;;;6232713;28;20045;-81
2021/08/02 16:40:04;;;;;;;4.68;3.95;;;;;;;;;;6235860;28;20455;-80
2021/08/02 16:43:06;;;;;;;5.88;4.05;;;;;;;;;;6236146;28;20110;-80
2021/08/02 16:46:08;;;;;;;4.25;3.80;;;;;;;;;;6237494;28;20492;-80
2021/08/02 16:49:09;;;;;;;4.75;4.28;;;;;;;;;;6235750;28;20042;-81
2021/08/02 16:52:15;;;;;;;5.53;4.47;;;;;;;;;;6236644;28;20080;-79
2021/08/02 16:55:17;;;;;;;5.07;4.15;;;;;;;;;;6234042;28;20082;-81
2021/08/02 16:58:19;;;;;;;5.00;4.50;;;;;;;;;;6224350;28;20065;-80
2021/08/02 17:01:23;;;;;;;5.80;5.20;;;;;;;;;;6234507;28;20072;-79
2021/08/02 17:04:27;;;;;;;6.80;5.30;;;;;;;;;;6227727;28;20056;-80
2021/08/02 17:07:29;;;;;;;6.88;6.07;;;;;;;;;;6263852;28;20041;-80
2021/08/02 17:10:31;;;;;;;8.02;5.70;;;;;;;;;;6244934;28;20119;-79
2021/08/02 17:13:33;;;;;;;6.45;5.60;;;;;;;;;;6231579;28;20038;-80
2021/08/02 17:16:35;;;;;;;7.93;6.20;;;;;;;;;;6243762;28;20050;-80
2021/08/02 17:19:40;;;;;;;8.00;5.67;;;;;;;;;;6240510;28;20042;-78
2021/08/02 17:22:41;;;;;;;9.95;6.25;;;;;;;;;;6240088;28;20503;-81
2021/08/02 17:25:50;;;;;;;5.80;5.13;;;;;;;;;;6241558;28;20084;-80
2021/08/02 17:29:02;;;;;;;;;;;;;;;;;;;;;
2021/08/02 17:32:08;;;;;;;8.95;5.72;;;;;;;;;;6242866;28;20059;-80
2021/08/02 17:35:10;;;;;;;;;;;;;;;;;;6203878;28;20056;-80
2021/08/02 17:38:12;;;;;;;6.60;5.25;;;;;;;;;;6250608;28;19975;-79
2021/08/02 17:41:15;;;;;;;6.82;4.82;;;;;;;;;;6260662;28;20033;-80
2021/08/02 17:44:17;;;;;;;7.32;5.38;;;;;;;;;;6257980;28;20042;-79
2021/08/02 17:47:18;;;;;;;6.03;5.38;;;;;;;;;;6259815;28;20041;-79
2021/08/02 17:50:28;;;;;;;6.78;5.60;;;;;;;;;;6257484;28;20515;-79
2021/08/02 17:53:32;;;;;;;6.80;5.53;;;;;;;;;;6240699;28;20046;-78
2021/08/02 17:56:34;;;;;;;6.25;5.18;;;;;;;;;;6241946;28;20079;-79
2021/08/02 17:59:41;;;;;;;7.22;5.57;;;;;;;;;;6207625;28;20076;-79
2021/08/02 18:02:43;;;;;;;7.18;6.03;;;;;;;;;;6235197;28;20052;-79
2021/08/02 18:05:48;;;;;;;;;;;;;;;;;;6196931;28;20055;-80
2021/08/02 18:08:51;;;;;;;7.13;5.32;;;;;;;;;;6219076;28;19925;-79
2021/08/02 18:11:56;;;;;;;8.00;6.03;;;;;;;;;;6242670;28;20037;-80
2021/08/02 18:14:58;;;;;;;7.32;5.13;;;;;;;;;;6230889;28;20053;-80
2021/08/02 18:17:59;;;;;;;8.65;6.72;;;;;;;;;;6239541;28;20113;-79
2021/08/02 18:21:01;;;;;;;9.10;6.47;;;;;;;;;;6255243;28;20041;-79
2021/08/02 18:24:03;;;;;;;6.88;4.70;;;;;;;;;;6219049;28;20056;-80
2021/08/02 18:27:05;;;;;;;4.93;4.30;;;;;;;;;;6230979;28;20137;-80
2021/08/02 18:30:07;;;;;;;3.90;3.47;;;;;;;;;;6207954;28;20045;-79